Time;durP1;ratioP1;P1;durP2;ratioP2;P2;SDS_P1;SDS_P2;PMS_P1;PMS_P2;Temp;Humidity;BMP_temperature;BMP_pressure;BME280_temperature;BME280_humidity;BME280_pressure;Samples;Min_cycle;Max_cycle;Signal;HPM_P1;HPM_P2
2023/06/04 00:00:42;;;;;;;3.92;1.38;;;12.80;94.70;;;;;;5017410;28;20044;-81
2023/06/04 00:03:07;;;;;;;3.60;1.88;;;12.70;95.10;;;;;;5008399;28;20547;-81
2023/06/04 00:05:33;;;;;;;2.78;1.30;;;12.70;95.80;;;;;;4999194;28;20060;-82
2023/06/04 00:07:59;;;;;;;2.40;1.67;;;12.60;96.30;;;;;;5010111;28;20154;-82
2023/06/04 00:10:25;;;;;;;2.28;1.60;;;12.50;96.30;;;;;;5013551;28;20500;-80
2023/06/04 00:12:50;;;;;;;4.15;1.77;;;12.50;96.40;;;;;;4978711;28;20037;-82
2023/06/04 00:15:16;;;;;;;3.80;1.50;;;12.50;97.00;;;;;;5015945;28;20037;-81
2023/06/04 00:17:42;;;;;;;9.05;1.70;;;12.40;97.10;;;;;;5033253;28;20048;-81
2023/06/04 00:20:09;;;;;;;4.28;1.60;;;12.40;97.20;;;;;;5014999;28;20037;-81
2023/06/04 00:22:35;;;;;;;3.15;1.55;;;12.40;97.60;;;;;;5032707;28;20037;-80
2023/06/04 00:25:01;;;;;;;3.88;1.73;;;12.40;97.90;;;;;;5013104;28;20040;-81
2023/06/04 00:27:26;;;;;;;6.55;1.48;;;12.40;97.70;;;;;;5012097;28;20095;-80
2023/06/04 00:29:52;;;;;;;2.05;1.33;;;12.40;97.60;;;;;;4996924;28;20117;-81
2023/06/04 00:32:18;;;;;;;3.83;1.70;;;12.40;97.70;;;;;;5032405;28;20473;-82
2023/06/04 00:34:49;;;;;;;3.78;1.65;;;12.50;97.80;;;;;;4983961;28;20092;-81
2023/06/04 00:37:15;;;;;;;2.42;1.80;;;12.50;97.80;;;;;;5009245;28;20069;-82
2023/06/04 00:39:41;;;;;;;2.78;1.60;;;12.50;97.80;;;;;;4978176;28;20086;-81
2023/06/04 00:42:06;;;;;;;3.95;1.70;;;12.40;97.90;;;;;;5007666;28;20041;-82
2023/06/04 00:44:33;;;;;;;4.30;1.83;;;12.40;98.30;;;;;;4996591;28;20523;-80
2023/06/04 00:46:59;;;;;;;5.00;1.73;;;12.40;98.60;;;;;;5030176;28;20087;-81
2023/06/04 00:49:25;;;;;;;3.33;1.83;;;12.40;98.90;;;;;;4999177;28;20152;-81
2023/06/04 00:51:51;;;;;;;4.32;2.10;;;12.30;99.40;;;;;;5001232;28;20116;-81
2023/06/04 00:54:17;;;;;;;3.17;1.75;;;12.10;99.50;;;;;;5015942;28;20469;-81
2023/06/04 00:56:44;;;;;;;3.80;1.80;;;12.10;99.90;;;;;;5002542;28;20049;-81
2023/06/04 00:59:10;;;;;;;3.95;1.63;;;12.00;99.90;;;;;;5015644;28;20493;-82
2023/06/04 01:01:58;;;;;;;4.60;1.80;;;12.00;99.90;;;;;;5022255;28;20037;-81
2023/06/04 01:04:31;;;;;;;3.00;1.80;;;11.90;99.90;;;;;;5030816;28;20152;-82
2023/06/04 01:07:00;;;;;;;4.57;1.83;;;11.90;99.90;;;;;;5032978;28;20559;-82
2023/06/04 01:09:30;;;;;;;3.88;2.17;;;11.80;99.90;;;;;;5012656;28;20033;-81
2023/06/04 01:12:01;;;;;;;4.57;2.60;;;11.80;99.90;;;;;;5013650;28;20045;-82
2023/06/04 01:14:27;;;;;;;5.43;2.35;;;11.80;99.90;;;;;;5011261;28;20040;-82
2023/06/04 01:17:08;;;;;;;3.53;1.90;;;11.70;99.90;;;;;;5001551;28;20045;-81
2023/06/04 01:19:59;;;;;;;3.35;2.05;;;11.80;99.90;;;;;;5045693;28;20542;-80
2023/06/04 01:22:28;;;;;;;5.72;2.40;;;11.70;99.90;;;;;;5033714;28;20041;-81
2023/06/04 01:24:59;;;;;;;4.30;2.10;;;11.70;99.90;;;;;;5017878;28;20044;-81
2023/06/04 01:27:25;;;;;;;5.45;2.20;;;11.70;99.90;;;;;;5017798;28;20029;-82
2023/06/04 01:29:51;;;;;;;5.43;2.53;;;11.70;99.90;;;;;;5002363;28;20155;-82
2023/06/04 01:32:17;;;;;;;5.22;2.20;;;11.70;99.90;;;;;;5002481;28;20385;-81
2023/06/04 01:34:45;;;;;;;6.80;2.50;;;11.60;99.90;;;;;;5014362;28;20519;-81
2023/06/04 01:37:11;;;;;;;4.28;2.30;;;11.60;99.90;;;;;;5000818;28;20045;-82
2023/06/04 01:39:37;;;;;;;4.65;2.50;;;11.50;99.90;;;;;;4988405;28;20039;-81
2023/06/04 01:42:03;;;;;;;3.45;2.15;;;11.50;99.90;;;;;;5000017;28;20033;-82
2023/06/04 01:44:28;;;;;;;5.32;2.00;;;11.40;99.90;;;;;;4990375;28;20120;-82
2023/06/04 01:46:54;;;;;;;4.72;2.15;;;11.40;99.90;;;;;;5018018;28;20041;-82
2023/06/04 01:49:20;;;;;;;5.65;2.58;;;11.40;99.90;;;;;;4997764;28;20486;-82
2023/06/04 01:51:45;;;;;;;4.47;2.42;;;11.30;99.90;;;;;;5002715;28;20107;-82
2023/06/04 01:54:11;;;;;;;4.53;2.25;;;11.30;99.90;;;;;;5017657;28;20053;-82
2023/06/04 01:56:36;;;;;;;4.55;2.35;;;11.30;99.90;;;;;;4980325;28;20479;-82
2023/06/04 01:59:03;;;;;;;4.18;2.28;;;11.30;99.90;;;;;;4991483;28;20037;-82
2023/06/04 02:01:29;;;;;;;4.93;2.30;;;11.30;99.90;;;;;;4997927;28;20056;-81
2023/06/04 02:03:55;;;;;;;6.03;2.70;;;11.20;99.90;;;;;;5017428;28;20485;-81
2023/06/04 02:06:20;;;;;;;9.20;2.35;;;11.20;99.90;;;;;;4997924;28;20463;-82
2023/06/04 02:08:46;;;;;;;4.32;2.47;;;11.10;99.90;;;;;;4999279;28;20112;-82
2023/06/04 02:11:12;;;;;;;5.47;2.88;;;11.00;99.90;;;;;;5004934;28;20036;-83
2023/06/04 02:13:38;;;;;;;6.05;3.50;;;11.00;99.90;;;;;;5001886;28;20745;-82
2023/06/04 02:16:04;;;;;;;5.95;3.08;;;11.00;99.90;;;;;;4985947;28;20396;-82
2023/06/04 02:18:30;;;;;;;5.47;2.53;;;10.90;99.90;;;;;;5017554;28;20036;-82
2023/06/04 02:20:56;;;;;;;5.35;2.50;;;10.80;99.90;;;;;;5008390;28;20044;-82
2023/06/04 02:23:22;;;;;;;4.32;2.53;;;10.80;99.90;;;;;;5016861;28;20040;-82
2023/06/04 02:25:49;;;;;;;4.38;2.90;;;10.80;99.90;;;;;;5034604;28;20090;-81
2023/06/04 02:28:15;;;;;;;5.75;2.45;;;10.80;99.90;;;;;;5032144;28;20045;-81
2023/06/04 02:30:41;;;;;;;8.07;3.08;;;10.80;99.90;;;;;;5014691;28;20102;-81
2023/06/04 02:33:09;;;;;;;6.10;3.53;;;10.80;99.90;;;;;;5004101;28;20036;-81
2023/06/04 02:35:35;;;;;;;6.88;3.33;;;10.70;99.90;;;;;;5002306;28;20127;-81
2023/06/04 02:38:01;;;;;;;7.43;3.53;;;10.70;99.90;;;;;;5014685;28;20040;-81
2023/06/04 02:40:27;;;;;;;5.60;3.17;;;10.70;99.90;;;;;;5018629;28;20040;-81
2023/06/04 02:42:54;;;;;;;6.32;3.30;;;10.60;99.90;;;;;;5001587;28;20451;-82
2023/06/04 02:45:21;;;;;;;9.00;3.30;;;10.60;99.90;;;;;;4999047;28;20131;-81
2023/06/04 02:47:46;;;;;;;6.10;3.47;;;10.60;99.90;;;;;;5016113;28;20094;-80
2023/06/04 02:50:14;;;;;;;6.18;3.60;;;10.50;99.90;;;;;;5028530;28;20432;-81
2023/06/04 02:52:39;;;;;;;9.52;3.53;;;10.50;99.90;;;;;;5010910;28;20037;-80
2023/06/04 02:55:08;;;;;;;7.75;3.60;;;10.60;99.90;;;;;;4997664;28;20056;-81
2023/06/04 02:57:35;;;;;;;8.70;3.78;;;10.60;99.90;;;;;;5016049;28;20078;-81
2023/06/04 03:00:01;;;;;;;8.43;3.78;;;10.60;99.90;;;;;;5017074;28;20052;-82
2023/06/04 03:02:27;;;;;;;9.15;3.53;;;10.60;99.90;;;;;;5000627;28;20051;-82
2023/06/04 03:04:54;;;;;;;8.40;3.60;;;10.60;99.90;;;;;;5017009;28;20041;-82
2023/06/04 03:07:22;;;;;;;6.82;4.03;;;10.50;99.90;;;;;;5003015;28;20033;-82
2023/06/04 03:09:49;;;;;;;8.45;3.53;;;10.50;99.90;;;;;;5025608;28;20448;-82
2023/06/04 03:12:15;;;;;;;8.85;3.47;;;10.40;99.90;;;;;;5012866;28;20029;-82
2023/06/04 03:14:40;;;;;;;7.55;3.92;;;10.40;99.90;;;;;;5011941;28;20056;-82
2023/06/04 03:17:12;;;;;;;7.80;4.30;;;10.40;99.90;;;;;;5016143;28;20075;-81
2023/06/04 03:19:40;;;;;;;10.15;4.03;;;10.30;99.90;;;;;;5000280;28;20052;-81
2023/06/04 03:22:07;;;;;;;10.70;4.28;;;10.40;99.90;;;;;;5011576;28;20064;-82
2023/06/04 03:24:39;;;;;;;8.45;3.90;;;10.30;99.90;;;;;;5015967;28;20051;-82
2023/06/04 03:27:07;;;;;;;8.57;4.28;;;10.30;99.90;;;;;;5017557;28;20443;-81
2023/06/04 03:29:33;;;;;;;6.75;3.67;;;10.40;99.90;;;;;;5032099;28;20393;-82
2023/06/04 03:32:00;;;;;;;8.80;3.80;;;10.30;99.90;;;;;;5003922;28;20037;-81
2023/06/04 03:34:26;;;;;;;9.57;4.22;;;10.40;99.90;;;;;;5025113;28;20037;-81
2023/06/04 03:36:55;;;;;;;11.13;4.05;;;10.40;99.90;;;;;;5008566;28;20119;-81
2023/06/04 03:39:22;;;;;;;7.13;3.80;;;10.30;99.90;;;;;;5013240;28;20036;-82
2023/06/04 03:41:48;;;;;;;9.95;4.82;;;10.30;99.90;;;;;;5028402;28;20485;-81
2023/06/04 03:44:17;;;;;;;9.18;3.95;;;10.30;99.90;;;;;;5000131;28;20094;-81
2023/06/04 03:46:44;;;;;;;8.90;3.67;;;10.30;99.90;;;;;;5011272;28;20045;-82
2023/06/04 03:49:10;;;;;;;10.52;4.30;;;10.30;99.90;;;;;;5007900;28;20120;-81
2023/06/04 03:51:40;;;;;;;8.85;4.05;;;10.30;99.90;;;;;;5030211;28;20047;-81
2023/06/04 03:54:06;;;;;;;7.28;4.20;;;10.40;99.90;;;;;;5011080;28;20052;-82
2023/06/04 03:56:32;;;;;;;7.88;3.90;;;10.40;99.90;;;;;;4994142;28;20098;-81
2023/06/04 03:58:58;;;;;;;8.15;3.60;;;10.40;99.90;;;;;;5016641;28;20041;-81
2023/06/04 04:01:24;;;;;;;9.05;3.88;;;10.50;99.90;;;;;;5001632;28;20068;-81
2023/06/04 04:03:50;;;;;;;11.85;4.47;;;10.50;99.90;;;;;;5013564;28;20597;-81
2023/06/04 04:06:17;;;;;;;8.05;4.22;;;10.50;99.90;;;;;;5018132;28;20033;-81
2023/06/04 04:08:43;;;;;;;9.95;4.10;;;10.50;99.90;;;;;;5027305;28;20048;-82
2023/06/04 04:11:15;;;;;;;7.35;3.50;;;10.50;99.90;;;;;;5028355;28;20040;-82
2023/06/04 04:13:41;;;;;;;9.25;4.10;;;10.50;99.90;;;;;;5015164;28;20091;-82
2023/06/04 04:16:07;;;;;;;8.85;3.92;;;10.50;99.90;;;;;;5014441;28;20061;-81
2023/06/04 04:18:33;;;;;;;8.75;3.92;;;10.50;99.90;;;;;;5037592;28;20076;-81
2023/06/04 04:20:59;;;;;;;10.35;4.00;;;10.50;99.90;;;;;;5005516;28;20393;-81
2023/06/04 04:23:25;;;;;;;9.90;4.20;;;10.50;99.90;;;;;;5002643;28;20128;-82
2023/06/04 04:25:51;;;;;;;8.07;4.00;;;10.50;99.90;;;;;;5018400;28;20118;-82
2023/06/04 04:28:18;;;;;;;12.85;4.88;;;10.40;99.90;;;;;;4995819;28;20037;-81
2023/06/04 04:30:46;;;;;;;13.55;4.68;;;10.40;99.90;;;;;;5002019;28;20501;-82
2023/06/04 04:33:15;;;;;;;8.43;4.30;;;10.40;99.90;;;;;;4997625;28;20102;-82
2023/06/04 04:35:42;;;;;;;9.40;4.38;;;10.40;99.90;;;;;;5012553;28;20116;-82
2023/06/04 04:38:08;;;;;;;6.88;4.05;;;10.40;99.90;;;;;;5035618;28;20099;-82
2023/06/04 04:40:34;;;;;;;9.95;4.20;;;10.30;99.90;;;;;;5002890;28;20045;-82
2023/06/04 04:42:59;;;;;;;7.32;4.40;;;10.30;99.90;;;;;;4982815;28;20091;-82
2023/06/04 04:45:25;;;;;;;11.00;4.55;;;10.40;99.90;;;;;;4987249;28;20067;-81
2023/06/04 04:47:51;;;;;;;14.40;4.68;;;10.40;99.90;;;;;;5018563;28;20040;-81
2023/06/04 04:50:17;;;;;;;7.10;3.90;;;10.40;99.90;;;;;;5001855;28;20459;-82
2023/06/04 04:52:42;;;;;;;13.75;4.72;;;10.50;99.90;;;;;;5002513;28;20124;-82
2023/06/04 04:55:09;;;;;;;10.85;4.45;;;10.60;99.90;;;;;;5001261;28;20081;-82
2023/06/04 04:57:35;;;;;;;9.55;4.35;;;10.60;99.90;;;;;;4986098;28;20499;-82
2023/06/04 05:00:04;;;;;;;8.73;3.95;;;10.70;99.90;;;;;;5017625;28;20484;-81
2023/06/04 05:02:30;;;;;;;16.30;4.78;;;10.70;99.90;;;;;;5015055;28;20501;-82
2023/06/04 05:04:56;;;;;;;9.15;3.83;;;10.80;99.90;;;;;;4994586;28;20036;-82
2023/06/04 05:07:23;;;;;;;10.23;4.28;;;10.80;99.90;;;;;;4985096;28;20424;-82
2023/06/04 05:09:49;;;;;;;9.13;3.67;;;10.90;99.90;;;;;;4987107;28;20068;-82
2023/06/04 05:12:15;;;;;;;8.52;4.03;;;10.90;99.90;;;;;;5022573;28;20072;-83
2023/06/04 05:14:41;;;;;;;9.55;4.22;;;11.00;99.90;;;;;;5040518;28;20052;-81
2023/06/04 05:17:10;;;;;;;12.57;3.80;;;11.00;99.90;;;;;;5000826;28;20041;-82
2023/06/04 05:19:37;;;;;;;13.88;4.22;;;11.10;99.90;;;;;;5013751;28;20091;-81
2023/06/04 05:22:03;;;;;;;8.23;4.18;;;11.20;99.90;;;;;;5003238;28;20072;-81
2023/06/04 05:24:29;;;;;;;7.57;3.72;;;11.20;99.90;;;;;;4999504;28;20048;-82
2023/06/04 05:26:58;;;;;;;9.48;4.30;;;11.30;99.90;;;;;;5018470;28;20193;-81
2023/06/04 05:29:23;;;;;;;6.70;3.80;;;11.30;99.90;;;;;;4998217;28;20521;-83
2023/06/04 05:31:49;;;;;;;9.85;4.38;;;11.40;99.90;;;;;;5035807;28;20171;-82
2023/06/04 05:34:15;;;;;;;9.07;3.83;;;11.50;99.90;;;;;;5006786;28;20040;-82
2023/06/04 05:36:41;;;;;;;10.50;4.35;;;11.50;99.90;;;;;;5007888;28;20044;-82
2023/06/04 05:39:09;;;;;;;11.27;4.00;;;11.50;99.90;;;;;;5001427;28;20041;-82
2023/06/04 05:41:35;;;;;;;8.30;4.07;;;11.60;99.90;;;;;;4983756;28;20038;-82
2023/06/04 05:44:01;;;;;;;13.93;4.78;;;11.60;99.90;;;;;;5018748;28;20036;-82
2023/06/04 05:46:27;;;;;;;11.75;4.25;;;11.70;99.90;;;;;;5002751;28;20037;-82
2023/06/04 05:48:54;;;;;;;10.68;4.25;;;11.80;99.90;;;;;;4985395;28;20039;-82
2023/06/04 05:51:20;;;;;;;9.52;4.43;;;11.80;99.90;;;;;;4984413;28;20041;-82
2023/06/04 05:53:46;;;;;;;10.30;4.55;;;11.90;99.90;;;;;;5027995;28;20076;-82
2023/06/04 05:56:13;;;;;;;8.88;4.60;;;12.00;99.90;;;;;;5010241;28;20067;-82
2023/06/04 05:58:39;;;;;;;11.02;4.47;;;12.10;99.90;;;;;;4987882;28;20053;-82
2023/06/04 06:01:04;;;;;;;9.20;4.68;;;12.10;99.90;;;;;;4993226;28;20038;-81
2023/06/04 06:03:30;;;;;;;9.40;4.30;;;12.20;99.90;;;;;;5008580;28;20086;-80
2023/06/04 06:05:58;;;;;;;12.15;3.95;;;12.20;99.90;;;;;;5009044;28;20485;-81
2023/06/04 06:08:24;;;;;;;9.50;4.30;;;12.30;99.90;;;;;;4999066;28;20367;-81
2023/06/04 06:10:50;;;;;;;11.07;4.05;;;12.40;99.90;;;;;;5016200;28;20090;-81
2023/06/04 06:13:15;;;;;;;10.88;4.57;;;12.40;99.90;;;;;;5017846;28;20037;-81
2023/06/04 06:15:41;;;;;;;10.15;3.92;;;12.50;99.90;;;;;;5002058;28;20132;-80
2023/06/04 06:18:07;;;;;;;6.82;4.10;;;12.70;99.90;;;;;;5016637;28;20044;-80
2023/06/04 06:20:33;;;;;;;7.78;3.90;;;12.70;99.90;;;;;;5003003;28;20041;-81
2023/06/04 06:23:06;;;;;;;8.82;4.20;;;12.80;99.90;;;;;;5019152;28;20069;-81
2023/06/04 06:25:32;;;;;;;10.25;4.35;;;12.90;99.90;;;;;;5013718;28;20059;-82
2023/06/04 06:27:57;;;;;;;9.40;3.78;;;13.10;99.90;;;;;;5003080;28;20540;-82
2023/06/04 06:30:23;;;;;;;7.55;3.47;;;13.20;99.90;;;;;;4989987;28;20029;-82
2023/06/04 06:32:49;;;;;;;9.13;3.65;;;13.30;99.90;;;;;;5013253;28;20072;-81
2023/06/04 06:35:17;;;;;;;8.30;3.53;;;13.50;99.90;;;;;;5018483;28;20128;-81
2023/06/04 06:37:43;;;;;;;10.05;3.45;;;13.70;99.90;;;;;;5019232;28;20044;-80
2023/06/04 06:40:09;;;;;;;11.80;3.67;;;13.80;99.90;;;;;;5027684;28;20052;-80
2023/06/04 06:42:35;;;;;;;7.55;3.83;;;14.00;99.90;;;;;;5030509;28;20045;-81
2023/06/04 06:45:01;;;;;;;8.20;3.65;;;14.20;99.90;;;;;;5014815;28;20060;-80
2023/06/04 06:47:26;;;;;;;7.63;3.58;;;14.40;99.90;;;;;;5013500;28;20040;-79
2023/06/04 06:49:52;;;;;;;6.28;3.10;;;14.60;99.90;;;;;;5033317;28;20036;-80
2023/06/04 06:52:19;;;;;;;4.95;2.80;;;14.80;99.90;;;;;;4999417;28;20443;-81
2023/06/04 06:54:46;;;;;;;6.00;3.15;;;15.00;99.90;;;;;;4981533;28;20517;-80
2023/06/04 06:57:12;;;;;;;10.23;3.50;;;15.30;99.90;;;;;;5031895;28;20055;-80
2023/06/04 06:59:37;;;;;;;9.30;3.50;;;15.40;99.90;;;;;;5001725;28;20469;-82
2023/06/04 07:02:10;;;;;;;7.70;3.40;;;15.50;99.90;;;;;;5095950;27;20421;-55
2023/06/04 07:04:36;;;;;;;7.82;3.38;;;15.60;99.90;;;;;;5092817;28;20047;-55
2023/06/04 07:07:02;;;;;;;9.38;3.10;;;15.70;99.90;;;;;;5089361;28;20044;-56
2023/06/04 07:09:28;;;;;;;6.75;3.10;;;15.80;99.90;;;;;;5083965;28;20484;-56
2023/06/04 07:11:54;;;;;;;7.97;3.30;;;15.80;99.90;;;;;;5086840;28;20040;-55
2023/06/04 07:14:20;;;;;;;7.13;3.38;;;16.00;99.90;;;;;;5089443;28;20519;-57
2023/06/04 07:16:46;;;;;;;7.15;2.78;;;16.00;99.90;;;;;;5085639;28;20040;-56
2023/06/04 07:19:11;;;;;;;8.05;3.10;;;16.30;99.90;;;;;;5083936;28;20198;-56
2023/06/04 07:21:37;;;;;;;7.55;3.20;;;16.40;99.90;;;;;;5088709;28;20074;-56
2023/06/04 07:24:03;;;;;;;7.28;3.10;;;16.50;99.90;;;;;;5087221;28;20119;-55
2023/06/04 07:26:30;;;;;;;7.47;3.08;;;16.60;99.90;;;;;;5086418;28;20070;-58
2023/06/04 07:28:57;;;;;;;7.22;3.08;;;16.80;99.90;;;;;;5086954;28;20074;-55
2023/06/04 07:31:22;;;;;;;8.02;3.00;;;17.00;99.90;;;;;;5096058;28;20522;-56
2023/06/04 07:33:48;;;;;;;8.15;3.30;;;17.30;99.90;;;;;;5092004;28;20104;-56
2023/06/04 07:36:14;;;;;;;7.28;2.70;;;17.60;99.90;;;;;;5095309;28;20123;-55
2023/06/04 07:38:40;;;;;;;6.65;2.80;;;17.80;99.90;;;;;;5083389;28;20069;-55
2023/06/04 07:41:06;;;;;;;6.53;2.80;;;18.10;99.90;;;;;;5081593;28;20076;-56
2023/06/04 07:43:37;;;;;;;7.70;2.40;;;18.30;99.90;;;;;;5084338;28;20105;-55
2023/06/04 07:46:04;;;;;;;4.55;1.83;;;18.50;99.90;;;;;;5082091;28;20047;-55
2023/06/04 07:48:32;;;;;;;6.15;2.50;;;18.70;99.90;;;;;;5096976;28;20029;-56
2023/06/04 07:50:59;;;;;;;8.05;2.10;;;18.90;99.90;;;;;;5085294;28;20100;-56
2023/06/04 07:53:26;;;;;;;9.32;2.15;;;19.10;99.90;;;;;;5082872;28;20066;-57
2023/06/04 07:55:52;;;;;;;6.93;2.22;;;19.20;99.90;;;;;;5083784;28;20049;-56
2023/06/04 07:58:17;;;;;;;5.95;2.20;;;19.30;99.90;;;;;;5089525;28;20062;-55
2023/06/04 08:00:43;;;;;;;4.68;2.00;;;19.50;99.90;;;;;;5081122;28;20400;-55
2023/06/04 08:03:10;;;;;;;7.88;2.30;;;19.60;99.90;;;;;;5080241;28;20059;-55
2023/06/04 08:05:35;;;;;;;6.00;1.92;;;19.80;99.90;;;;;;5081357;28;20069;-55
2023/06/04 08:08:01;;;;;;;5.78;2.20;;;19.90;99.90;;;;;;5076381;28;20041;-56
2023/06/04 08:10:27;;;;;;;7.13;2.10;;;20.10;99.90;;;;;;5079551;28;20496;-56
2023/06/04 08:12:53;;;;;;;11.35;2.72;;;20.20;99.90;;;;;;5068806;28;20041;-55
2023/06/04 08:15:18;;;;;;;6.38;2.10;;;20.30;99.90;;;;;;5065697;28;20041;-56
2023/06/04 08:17:44;;;;;;;3.58;1.77;;;20.30;99.80;;;;;;5072840;28;20049;-55
2023/06/04 08:20:10;;;;;;;4.75;2.13;;;20.40;99.80;;;;;;5066773;28;20060;-56
2023/06/04 08:22:35;;;;;;;6.68;2.10;;;20.60;99.60;;;;;;5068295;28;20033;-54
2023/06/04 08:25:01;;;;;;;5.90;2.10;;;20.70;99.20;;;;;;5064971;28;20112;-55
2023/06/04 08:27:27;;;;;;;5.72;2.10;;;20.80;98.40;;;;;;5069945;28;20036;-56
2023/06/04 08:29:53;;;;;;;6.55;1.98;;;20.80;98.10;;;;;;5071468;28;20072;-56
2023/06/04 08:32:18;;;;;;;7.15;2.00;;;20.80;97.60;;;;;;5067674;28;20520;-56
2023/06/04 08:34:44;;;;;;;6.45;2.20;;;20.80;97.20;;;;;;5068025;28;20071;-55
2023/06/04 08:37:10;;;;;;;7.68;2.40;;;20.80;96.90;;;;;;5067264;28;20052;-56
2023/06/04 08:39:36;;;;;;;5.35;2.08;;;20.90;97.10;;;;;;5087745;28;20036;-56
2023/06/04 08:42:07;;;;;;;3.50;1.55;;;20.90;96.90;;;;;;5072260;28;20045;-55
2023/06/04 08:44:33;;;;;;;8.02;1.90;;;20.90;95.90;;;;;;5062594;28;20107;-56
2023/06/04 08:47:08;;;;;;;4.85;1.80;;;20.90;95.70;;;;;;5063068;28;20041;-56
2023/06/04 08:49:38;;;;;;;6.68;1.90;;;20.90;94.40;;;;;;5066577;28;20028;-56
2023/06/04 08:52:06;;;;;;;3.58;1.80;;;21.00;94.90;;;;;;5067414;28;20083;-56
2023/06/04 08:54:33;;;;;;;6.28;2.00;;;21.10;94.50;;;;;;5067707;28;20313;-56
2023/06/04 08:57:00;;;;;;;3.97;1.70;;;21.30;94.10;;;;;;5065686;28;20037;-56
2023/06/04 08:59:27;;;;;;;6.38;1.75;;;21.30;93.90;;;;;;5071613;28;20049;-56
2023/06/04 09:01:56;;;;;;;3.85;1.60;;;21.50;94.00;;;;;;5064989;28;20083;-56
2023/06/04 09:04:22;;;;;;;4.97;1.50;;;21.50;92.80;;;;;;5064440;28;20108;-56
2023/06/04 09:06:49;;;;;;;6.38;1.65;;;21.50;92.80;;;;;;5067612;28;20041;-55
2023/06/04 09:09:17;;;;;;;4.38;1.90;;;21.60;92.90;;;;;;5065285;28;20067;-56
2023/06/04 09:11:51;;;;;;;6.45;1.63;;;21.60;92.30;;;;;;5063703;28;20108;-56
2023/06/04 09:14:17;;;;;;;3.03;1.90;;;21.60;91.70;;;;;;5066766;28;20076;-55
2023/06/04 09:16:51;;;;;;;4.53;1.70;;;21.80;92.10;;;;;;5064072;28;20452;-56
2023/06/04 09:19:18;;;;;;;4.05;1.55;;;22.00;92.00;;;;;;5069036;28;20087;-56
2023/06/04 09:22:02;;;;;;;5.47;1.50;;;22.00;91.70;;;;;;5064513;28;20037;-55
2023/06/04 09:24:49;;;;;;;4.15;1.80;;;22.00;90.60;;;;;;5061439;28;20128;-56
2023/06/04 09:27:22;;;;;;;5.75;2.00;;;22.20;88.70;;;;;;5064879;28;20078;-56
2023/06/04 09:29:56;;;;;;;4.93;1.88;;;22.20;90.60;;;;;;5068214;28;20086;-55
2023/06/04 09:32:30;;;;;;;6.53;1.60;;;22.10;89.10;;;;;;5065234;28;20099;-56
2023/06/04 09:35:18;;;;;;;4.70;1.40;;;22.00;90.10;;;;;;5063727;28;20059;-56
2023/06/04 09:37:55;;;;;;;3.80;1.87;;;22.00;90.60;;;;;;5062012;28;20088;-55
2023/06/04 09:40:21;;;;;;;5.88;1.67;;;22.00;91.20;;;;;;5063475;28;20780;-56
2023/06/04 09:42:54;;;;;;;4.15;1.88;;;22.10;90.90;;;;;;5061920;28;20065;-56
2023/06/04 09:45:31;;;;;;;4.93;2.08;;;22.10;90.10;;;;;;5062928;28;20111;-57
2023/06/04 09:47:57;;;;;;;4.30;1.70;;;22.20;90.30;;;;;;5061984;28;20077;-56
2023/06/04 09:50:38;;;;;;;5.10;1.83;;;22.10;90.10;;;;;;5061185;28;20044;-56
2023/06/04 09:53:22;;;;;;;4.82;1.60;;;22.00;89.30;;;;;;5069296;28;20052;-56
2023/06/04 09:55:58;;;;;;;3.83;1.48;;;22.00;87.70;;;;;;5063324;28;20430;-56
2023/06/04 09:58:26;;;;;;;4.90;1.77;;;21.90;89.40;;;;;;5066858;28;20037;-57
2023/06/04 10:00:55;;;;;;;4.32;1.50;;;22.00;90.20;;;;;;5063958;28;20072;-55
2023/06/04 10:03:25;;;;;;;5.60;1.90;;;22.00;90.10;;;;;;5062650;28;20041;-56
2023/06/04 10:05:53;;;;;;;6.07;1.80;;;22.00;89.60;;;;;;5071004;28;20052;-56
2023/06/04 10:08:22;;;;;;;3.67;1.60;;;22.00;89.90;;;;;;5062575;28;20044;-56
2023/06/04 10:10:50;;;;;;;6.63;1.80;;;22.10;89.20;;;;;;5065485;28;20128;-56
2023/06/04 10:13:20;;;;;;;3.72;1.50;;;22.20;89.30;;;;;;5062410;28;20060;-53
2023/06/04 10:15:47;;;;;;;5.43;1.60;;;22.20;87.70;;;;;;5070749;28;20079;-54
2023/06/04 10:18:15;;;;;;;3.95;1.60;;;22.20;87.00;;;;;;5062754;28;20049;-54
2023/06/04 10:20:41;;;;;;;4.28;1.55;;;22.20;84.50;;;;;;5062858;28;20496;-56
2023/06/04 10:23:07;;;;;;;5.13;1.95;;;22.00;82.50;;;;;;5069349;28;20041;-56
2023/06/04 10:25:37;;;;;;;3.22;1.40;;;21.50;82.00;;;;;;5061262;28;20498;-55
2023/06/04 10:28:03;;;;;;;2.63;1.60;;;21.70;81.40;;;;;;5068813;28;20083;-56
2023/06/04 10:30:30;;;;;;;13.95;2.10;;;21.60;81.30;;;;;;5063572;28;20040;-55
2023/06/04 10:32:59;;;;;;;6.88;1.30;;;21.50;81.50;;;;;;5061099;28;20056;-55
2023/06/04 10:35:35;;;;;;;6.45;1.70;;;21.40;81.90;;;;;;5071569;28;20044;-55
2023/06/04 10:38:09;;;;;;;5.03;1.50;;;21.40;81.60;;;;;;5060481;28;20603;-55
2023/06/04 10:40:36;;;;;;;4.20;1.70;;;21.30;82.10;;;;;;5062035;28;20040;-55
2023/06/04 10:43:06;;;;;;;3.88;1.40;;;21.30;82.10;;;;;;5070795;28;20041;-56
2023/06/04 10:45:32;;;;;;;4.40;1.60;;;21.30;81.60;;;;;;5070094;28;20060;-55
2023/06/04 10:48:06;;;;;;;4.25;1.27;;;21.30;82.00;;;;;;5062253;28;20164;-55
2023/06/04 10:50:35;;;;;;;4.45;1.60;;;21.30;82.20;;;;;;5060198;28;20040;-56
2023/06/04 10:53:03;;;;;;;5.82;1.60;;;21.30;81.90;;;;;;5062477;28;20071;-55
2023/06/04 10:55:30;;;;;;;3.25;1.52;;;21.30;81.40;;;;;;5061762;28;20045;-56
2023/06/04 10:58:00;;;;;;;4.38;1.50;;;21.40;81.70;;;;;;5066225;28;20041;-56
2023/06/04 11:00:43;;;;;;;3.83;1.40;;;21.40;82.10;;;;;;5061347;28;20471;-55
2023/06/04 11:03:12;;;;;;;3.17;1.33;;;21.40;80.40;;;;;;5060957;28;20037;-56
2023/06/04 11:05:40;;;;;;;4.07;1.25;;;21.40;81.60;;;;;;5062269;28;20048;-56
2023/06/04 11:08:06;;;;;;;6.10;1.73;;;21.40;81.50;;;;;;5069133;28;20036;-56
2023/06/04 11:10:37;;;;;;;3.78;1.48;;;21.50;82.10;;;;;;5069868;28;20033;-55
2023/06/04 11:13:04;;;;;;;3.22;1.50;;;21.50;80.60;;;;;;5061564;28;20086;-55
2023/06/04 11:15:43;;;;;;;3.72;1.40;;;21.50;81.50;;;;;;5068814;28;20060;-56
2023/06/04 11:18:15;;;;;;;4.25;1.42;;;21.60;80.60;;;;;;5064756;28;20052;-56
2023/06/04 11:20:42;;;;;;;4.60;1.67;;;21.70;80.40;;;;;;5059822;28;20075;-55
2023/06/04 11:23:08;;;;;;;4.93;1.58;;;21.70;81.00;;;;;;5062343;28;20069;-56
2023/06/04 11:25:34;;;;;;;6.53;1.67;;;21.80;79.40;;;;;;5060488;28;20045;-55
2023/06/04 11:28:01;;;;;;;24.80;2.55;;;21.80;79.20;;;;;;5060773;28;20048;-56
2023/06/04 11:30:27;;;;;;;5.10;1.60;;;21.80;79.30;;;;;;5061359;28;20049;-55
2023/06/04 11:33:05;;;;;;;5.00;1.83;;;21.80;79.20;;;;;;5060850;28;20041;-55
2023/06/04 11:35:40;;;;;;;5.72;1.83;;;21.90;78.90;;;;;;5061877;28;20755;-55
2023/06/04 11:38:05;;;;;;;5.07;1.70;;;21.90;78.70;;;;;;5061108;28;20063;-56
2023/06/04 11:40:31;;;;;;;3.30;1.40;;;22.00;78.50;;;;;;5062025;28;20048;-56
2023/06/04 11:42:57;;;;;;;4.85;1.40;;;22.10;79.80;;;;;;5061191;28;20041;-55
2023/06/04 11:45:25;;;;;;;2.70;1.27;;;22.30;79.90;;;;;;5060672;28;20049;-56
2023/06/04 11:47:55;;;;;;;3.13;1.60;;;22.40;80.30;;;;;;5063491;28;20052;-55
2023/06/04 11:50:23;;;;;;;4.45;1.50;;;22.50;79.10;;;;;;5067578;28;20391;-56
2023/06/04 11:52:49;;;;;;;4.07;1.45;;;22.50;78.20;;;;;;5065978;28;20040;-56
2023/06/04 11:55:20;;;;;;;5.07;1.60;;;22.50;78.30;;;;;;5064980;28;20622;-55
2023/06/04 11:57:46;;;;;;;3.90;1.55;;;22.40;76.60;;;;;;5068698;28;20071;-56
2023/06/04 12:00:13;;;;;;;3.72;1.73;;;22.40;75.40;;;;;;5074874;28;20049;-55
2023/06/04 12:02:48;;;;;;;3.50;1.27;;;22.40;76.40;;;;;;5064605;28;20134;-56
2023/06/04 12:05:14;;;;;;;;;;;22.30;75.50;;;;;;5065985;28;20119;-56
2023/06/04 12:07:41;;;;;;;;;;;22.20;73.00;;;;;;5064624;28;20281;-56
2023/06/04 12:10:11;;;;;;;3.80;1.55;;;22.40;75.30;;;;;;5075384;28;20008;-56
2023/06/04 12:12:37;;;;;;;3.25;1.77;;;22.60;74.90;;;;;;5068888;28;20041;-56
2023/06/04 12:15:05;;;;;;;2.95;1.60;;;22.60;74.40;;;;;;5064692;28;20045;-55
2023/06/04 12:17:32;;;;;;;3.50;1.67;;;22.70;74.50;;;;;;5078395;28;20099;-55
2023/06/04 12:19:58;;;;;;;3.90;1.45;;;22.70;74.30;;;;;;5071198;28;20097;-56
2023/06/04 12:22:26;;;;;;;3.65;1.67;;;22.80;73.80;;;;;;5064714;28;20068;-54
2023/06/04 12:24:56;;;;;;;2.40;1.58;;;22.90;73.70;;;;;;5067749;28;20049;-56
2023/06/04 12:27:23;;;;;;;3.08;1.35;;;23.10;74.30;;;;;;5066752;28;20041;-56
2023/06/04 12:29:56;;;;;;;2.83;1.17;;;23.30;73.20;;;;;;5063177;28;20049;-56
2023/06/04 12:32:22;;;;;;;3.80;1.85;;;23.40;72.40;;;;;;5064563;28;20052;-57
2023/06/04 12:34:48;;;;;;;4.88;1.52;;;23.40;72.30;;;;;;5046783;28;20041;-56
2023/06/04 12:37:14;;;;;;;3.05;1.48;;;23.50;72.10;;;;;;5063331;28;20052;-56
2023/06/04 12:39:39;;;;;;;4.07;1.58;;;23.60;71.40;;;;;;5070109;28;20037;-57
2023/06/04 12:42:07;;;;;;;5.45;1.40;;;23.70;70.80;;;;;;5067299;28;20063;-55
2023/06/04 12:44:33;;;;;;;5.20;1.70;;;23.90;71.40;;;;;;5074821;28;20044;-56
2023/06/04 12:46:58;;;;;;;4.93;1.60;;;24.00;69.40;;;;;;5063310;28;20044;-55